createdAt,value
2023-05-12T00:01:31.400Z,11.60
2023-05-12T00:04:01.284Z,11.60
2023-05-12T00:06:29.642Z,11.60
2023-05-12T00:09:07.788Z,11.70
2023-05-12T00:11:41.745Z,11.60
2023-05-12T00:14:13.346Z,11.70
2023-05-12T00:16:45.007Z,11.60
2023-05-12T00:19:17.141Z,11.70
2023-05-12T00:21:46.583Z,11.70
2023-05-12T00:24:16.956Z,11.70
2023-05-12T00:26:45.026Z,11.60
2023-05-12T00:29:14.896Z,11.60
2023-05-12T00:31:48.495Z,11.60
2023-05-12T00:34:22.175Z,11.60
2023-05-12T00:36:53.727Z,11.60
2023-05-12T00:39:33.503Z,11.60
2023-05-12T00:42:12.319Z,11.50
2023-05-12T00:44:45.186Z,11.50
2023-05-12T00:47:14.188Z,11.50
2023-05-12T00:49:46.343Z,11.60
2023-05-12T00:52:17.281Z,11.50
2023-05-12T00:54:49.967Z,11.50
2023-05-12T00:57:20.767Z,11.50
2023-05-12T00:59:54.829Z,11.50
2023-05-12T01:02:27.716Z,11.50
2023-05-12T01:05:00.744Z,11.50
2023-05-12T01:07:37.177Z,11.50
2023-05-12T01:10:18.211Z,11.50
2023-05-12T01:12:49.148Z,11.50
2023-05-12T01:15:22.016Z,11.50
2023-05-12T01:17:59.000Z,11.50
2023-05-12T01:20:35.190Z,11.50
2023-05-12T01:23:09.180Z,11.50
2023-05-12T01:25:48.607Z,11.50
2023-05-12T01:28:29.453Z,11.60
2023-05-12T01:31:02.208Z,11.50
2023-05-12T01:33:30.727Z,11.60
2023-05-12T01:35:58.759Z,11.50
2023-05-12T01:38:30.633Z,11.60
2023-05-12T01:40:59.348Z,11.60
2023-05-12T01:43:36.215Z,11.60
2023-05-12T01:46:11.390Z,11.60
2023-05-12T01:48:40.416Z,11.60
2023-05-12T01:51:15.197Z,11.60
2023-05-12T01:53:44.594Z,11.60
2023-05-12T01:56:13.697Z,11.60
2023-05-12T01:58:47.748Z,11.60
2023-05-12T02:01:15.804Z,11.50
2023-05-12T02:03:47.650Z,11.60
2023-05-12T02:06:19.542Z,11.60
2023-05-12T02:08:52.709Z,11.60
2023-05-12T02:11:23.343Z,11.60
2023-05-12T02:13:57.264Z,11.60
2023-05-12T02:16:32.581Z,11.60
2023-05-12T02:19:01.276Z,11.60
2023-05-12T02:21:40.540Z,11.60
2023-05-12T02:24:09.868Z,11.60
2023-05-12T02:26:49.104Z,11.70
2023-05-12T02:29:28.699Z,11.60
2023-05-12T02:32:03.260Z,11.60
2023-05-12T02:37:19.457Z,11.60
2023-05-12T02:39:52.309Z,11.70
2023-05-12T02:42:23.117Z,11.70
2023-05-12T02:44:58.288Z,11.60
2023-05-12T02:47:33.630Z,11.60
2023-05-12T02:50:04.618Z,11.60
2023-05-12T02:52:35.958Z,11.60
2023-05-12T02:55:08.989Z,11.60
2023-05-12T02:57:46.000Z,11.70
2023-05-12T03:00:37.991Z,11.70
2023-05-12T03:03:13.046Z,11.60
2023-05-12T03:05:56.106Z,11.60
2023-05-12T03:08:28.939Z,11.60
2023-05-12T03:10:58.945Z,11.60
2023-05-12T03:13:33.549Z,11.60
2023-05-12T03:16:27.073Z,11.60
2023-05-12T03:18:56.396Z,11.60
2023-05-12T03:21:28.818Z,11.60
2023-05-12T03:23:59.518Z,11.60
2023-05-12T03:26:27.530Z,11.50
2023-05-12T03:29:00.577Z,11.60
2023-05-12T03:31:31.905Z,11.50
2023-05-12T03:34:04.588Z,11.40
2023-05-12T03:36:32.954Z,11.40
2023-05-12T03:39:05.305Z,11.30
2023-05-12T03:41:33.695Z,11.30
2023-05-12T03:44:03.238Z,11.40
2023-05-12T03:46:40.140Z,11.40
2023-05-12T03:49:08.417Z,11.40
2023-05-12T03:51:39.812Z,11.50
2023-05-12T03:54:08.279Z,11.50
2023-05-12T03:56:36.407Z,11.50
2023-05-12T03:59:04.952Z,11.50
2023-05-12T04:01:47.112Z,11.50
2023-05-12T04:04:15.328Z,11.50
2023-05-12T04:06:57.670Z,11.50
2023-05-12T04:09:27.011Z,11.40
2023-05-12T04:12:09.436Z,11.40
2023-05-12T04:14:43.965Z,11.40
2023-05-12T04:17:15.713Z,11.40
2023-05-12T04:19:45.440Z,11.50
2023-05-12T04:22:13.596Z,11.50
2023-05-12T04:24:41.766Z,11.50
2023-05-12T04:27:10.184Z,11.50
2023-05-12T04:29:39.688Z,11.40
2023-05-12T04:32:11.127Z,11.40
2023-05-12T04:34:49.416Z,11.40
2023-05-12T04:37:17.507Z,11.50
2023-05-12T04:39:45.667Z,11.50
2023-05-12T04:42:18.516Z,11.50
2023-05-12T04:44:46.762Z,11.50
2023-05-12T04:47:14.867Z,11.50
2023-05-12T04:49:44.525Z,11.50
2023-05-12T04:52:12.845Z,11.60
2023-05-12T04:54:40.891Z,11.60
2023-05-12T04:57:12.086Z,11.60
2023-05-12T05:00:01.174Z,11.60
2023-05-12T05:02:30.588Z,11.60
2023-05-12T05:05:01.392Z,11.70
2023-05-12T05:07:32.007Z,11.60
2023-05-12T05:10:03.901Z,11.80
2023-05-12T05:12:32.564Z,11.80
2023-05-12T05:15:14.115Z,11.80
2023-05-12T05:18:22.455Z,11.80
2023-05-12T05:21:16.613Z,11.80
2023-05-12T05:23:47.516Z,11.70
2023-05-12T05:26:19.427Z,11.80
2023-05-12T05:28:48.638Z,11.80
2023-05-12T05:31:22.948Z,11.90
2023-05-12T05:34:11.676Z,11.90
2023-05-12T05:43:42.649Z,12.20
2023-05-12T05:49:09.080Z,12.60
2023-05-12T05:51:39.066Z,12.70
2023-05-12T05:54:09.222Z,12.80
2023-05-12T05:56:38.374Z,13.00
2023-05-12T05:59:08.625Z,13.00
2023-05-12T06:01:47.524Z,13.10
2023-05-12T06:05:08.271Z,13.30
2023-05-12T06:07:47.637Z,13.40
2023-05-12T06:10:22.736Z,13.50
2023-05-12T06:13:23.605Z,13.60
2023-05-12T06:15:53.208Z,13.50
2023-05-12T06:18:24.051Z,13.70
2023-05-12T06:20:53.523Z,13.60
2023-05-12T06:24:01.183Z,13.60
2023-05-12T06:26:30.933Z,14.00
2023-05-12T06:29:05.620Z,14.10
2023-05-12T06:31:44.953Z,14.30
2023-05-12T06:34:21.487Z,14.30
2023-05-12T06:40:36.187Z,14.70
2023-05-12T06:43:05.905Z,14.80
2023-05-12T06:45:57.365Z,14.60
2023-05-12T06:48:37.501Z,14.40
2023-05-12T06:51:05.794Z,14.50
2023-05-12T06:53:37.530Z,14.50
2023-05-12T06:56:06.350Z,14.40
2023-05-12T06:58:36.340Z,14.60
2023-05-12T07:01:04.588Z,14.50
2023-05-12T07:03:33.955Z,14.70
2023-05-12T07:06:02.323Z,14.90
2023-05-12T07:08:34.478Z,15.00
2023-05-12T07:11:28.862Z,15.00
2023-05-12T07:13:58.605Z,14.90
2023-05-12T07:16:27.065Z,14.80
2023-05-12T07:18:55.917Z,14.60
2023-05-12T07:21:24.605Z,14.30
2023-05-12T07:23:52.682Z,14.50
2023-05-12T07:26:21.693Z,14.60
2023-05-12T07:29:13.939Z,14.70
2023-05-12T07:31:46.817Z,14.60
2023-05-12T07:34:15.194Z,14.40
2023-05-12T07:36:44.714Z,14.40
2023-05-12T07:39:13.784Z,14.40
2023-05-12T07:41:43.315Z,14.80
2023-05-12T07:44:20.794Z,15.40
2023-05-12T07:49:58.263Z,17.20
2023-05-12T07:52:34.741Z,18.10
2023-05-12T07:55:02.878Z,19.20
2023-05-12T07:57:51.678Z,18.00
2023-05-12T08:00:20.460Z,18.80
2023-05-12T08:05:51.565Z,17.90
2023-05-12T08:08:20.116Z,18.10
2023-05-12T08:11:43.247Z,17.80
2023-05-12T08:17:57.019Z,17.40
2023-05-12T08:20:25.775Z,17.00
2023-05-12T08:22:54.268Z,16.90
2023-05-12T08:28:24.339Z,17.10
2023-05-12T08:30:57.410Z,17.70
2023-05-12T08:33:36.294Z,18.20
2023-05-12T08:36:23.423Z,18.30
2023-05-12T08:38:51.532Z,18.70
2023-05-12T08:41:32.177Z,18.50
2023-05-12T08:44:04.481Z,18.80
2023-05-12T08:46:36.788Z,17.60
2023-05-12T08:49:25.885Z,18.20
2023-05-12T08:52:24.430Z,18.70
2023-05-12T08:55:14.767Z,17.70
2023-05-12T08:57:50.264Z,16.30
2023-05-12T09:00:20.303Z,16.50
2023-05-12T09:02:53.886Z,17.70
2023-05-12T09:05:31.062Z,16.60
2023-05-12T09:11:48.828Z,17.50
2023-05-12T09:14:26.417Z,16.50
2023-05-12T09:17:02.272Z,16.80
2023-05-12T09:19:31.468Z,16.30
2023-05-12T09:22:24.721Z,16.50
2023-05-12T09:24:55.104Z,16.30
2023-05-12T09:27:40.911Z,16.50
2023-05-12T09:30:11.110Z,16.10
2023-05-12T09:32:40.727Z,16.00
2023-05-12T09:35:22.143Z,16.30
2023-05-12T09:37:54.220Z,16.30
2023-05-12T09:40:22.845Z,16.60
2023-05-12T09:42:51.853Z,16.90
2023-05-12T09:45:21.605Z,17.00
2023-05-12T09:51:18.422Z,17.50
2023-05-12T09:54:22.641Z,17.60
2023-05-12T09:56:53.893Z,17.10
2023-05-12T09:59:26.915Z,16.60
2023-05-12T10:02:08.208Z,16.50
2023-05-12T10:05:03.429Z,16.70
2023-05-12T10:07:36.030Z,16.70
2023-05-12T10:10:25.169Z,16.70
2023-05-12T10:12:56.077Z,16.70
2023-05-12T10:15:26.209Z,17.20
2023-05-12T10:18:22.532Z,17.10
2023-05-12T10:20:53.041Z,16.80
2023-05-12T10:23:23.394Z,16.90
2023-05-12T10:26:05.062Z,17.20
2023-05-12T10:28:38.298Z,17.50
2023-05-12T10:31:11.766Z,17.70
2023-05-12T10:33:39.869Z,17.50
2023-05-12T10:36:39.515Z,18.40
2023-05-12T10:39:20.256Z,18.80
2023-05-12T10:41:52.756Z,18.30
2023-05-12T10:44:56.925Z,18.40
2023-05-12T10:48:29.607Z,18.50
2023-05-12T10:54:44.916Z,18.40
2023-05-12T10:57:23.194Z,18.60
2023-05-12T11:04:17.398Z,17.80
2023-05-12T11:06:47.128Z,18.30
2023-05-12T11:09:31.241Z,18.30
2023-05-12T11:12:14.832Z,18.00
2023-05-12T11:15:24.807Z,18.00
2023-05-12T11:18:38.834Z,18.00
2023-05-12T11:21:12.226Z,18.20
2023-05-12T11:23:45.490Z,18.30
2023-05-12T11:26:19.493Z,18.20
2023-05-12T11:29:23.435Z,18.30
2023-05-12T11:35:20.973Z,18.40
2023-05-12T11:38:37.464Z,18.30
2023-05-12T11:41:11.015Z,18.50
2023-05-12T11:43:50.177Z,18.90
2023-05-12T11:46:26.587Z,18.70
2023-05-12T11:48:58.524Z,19.30
2023-05-12T11:51:28.653Z,19.10
2023-05-12T11:53:57.047Z,19.40
2023-05-12T11:56:26.722Z,19.20
2023-05-12T11:59:06.230Z,18.80
2023-05-12T12:01:47.534Z,18.70
2023-05-12T12:04:36.213Z,18.60
2023-05-12T12:07:08.130Z,18.70
2023-05-12T12:09:38.416Z,18.90
2023-05-12T12:12:09.481Z,19.10
2023-05-12T12:14:38.934Z,19.20
2023-05-12T12:17:06.916Z,19.70
2023-05-12T12:19:35.216Z,20.40
2023-05-12T12:22:03.426Z,20.20
2023-05-12T12:24:33.168Z,19.90
2023-05-12T12:27:01.626Z,19.90
2023-05-12T12:29:35.308Z,19.40
2023-05-12T12:32:03.693Z,19.10
2023-05-12T12:34:31.887Z,18.90
2023-05-12T12:37:39.903Z,18.90
2023-05-12T12:40:13.104Z,18.80
2023-05-12T12:42:41.935Z,19.10
2023-05-12T12:45:11.050Z,18.90
2023-05-12T12:47:39.524Z,19.20
2023-05-12T12:50:09.654Z,19.20
2023-05-12T12:52:43.658Z,18.90
2023-05-12T12:56:01.924Z,18.80
2023-05-12T12:58:35.736Z,18.60
2023-05-12T13:01:04.330Z,18.40
2023-05-12T13:03:32.433Z,18.20
2023-05-12T13:06:00.764Z,17.70
2023-05-12T13:08:38.171Z,17.80
2023-05-12T13:11:09.191Z,17.90
2023-05-12T13:13:39.306Z,17.30
2023-05-12T13:16:55.344Z,17.40
2023-05-12T13:19:26.746Z,17.60
2023-05-12T13:21:57.508Z,17.60
2023-05-12T13:24:41.229Z,17.40
2023-05-12T13:27:10.646Z,17.70
2023-05-12T13:29:50.937Z,17.60
2023-05-12T13:32:51.167Z,17.50
2023-05-12T13:36:01.513Z,17.40
2023-05-12T13:38:31.683Z,17.40
2023-05-12T13:41:08.892Z,17.00
2023-05-12T13:43:48.684Z,16.00
2023-05-12T13:46:19.514Z,15.40
2023-05-12T13:48:58.792Z,13.90
2023-05-12T13:51:27.119Z,12.80
2023-05-12T13:57:21.832Z,13.20
2023-05-12T14:00:10.216Z,13.10
2023-05-12T14:02:42.573Z,13.10
2023-05-12T14:05:10.969Z,13.40
2023-05-12T14:08:12.588Z,13.50
2023-05-12T14:10:45.241Z,13.40
2023-05-12T14:13:15.177Z,13.30
2023-05-12T14:15:49.080Z,13.40
2023-05-12T14:24:55.817Z,13.30
2023-05-12T14:27:27.459Z,13.20
2023-05-12T14:29:55.869Z,13.20
2023-05-12T14:32:27.400Z,13.50
2023-05-12T14:35:01.799Z,13.10
2023-05-12T14:37:47.183Z,13.30
2023-05-12T14:40:15.819Z,13.30
2023-05-12T14:42:43.926Z,13.40
2023-05-12T14:45:12.408Z,13.80
2023-05-12T14:47:44.319Z,13.50
2023-05-12T14:50:15.143Z,14.30
2023-05-12T14:52:43.420Z,14.60
2023-05-12T14:55:13.679Z,15.00
2023-05-12T14:57:42.742Z,15.10
2023-05-12T15:00:13.120Z,15.00
2023-05-12T15:02:49.892Z,15.10
2023-05-12T15:05:56.957Z,15.00
2023-05-12T15:08:28.026Z,15.00
2023-05-12T15:13:52.360Z,14.30
2023-05-12T15:16:20.419Z,14.10
2023-05-12T15:18:48.528Z,14.10
2023-05-12T15:21:20.442Z,14.00
2023-05-12T15:23:48.535Z,14.20
2023-05-12T15:26:32.027Z,14.30
2023-05-12T15:29:01.889Z,14.40
2023-05-12T15:31:36.305Z,14.50
2023-05-12T15:34:04.865Z,14.50
2023-05-12T15:36:36.104Z,14.50
2023-05-12T15:39:23.601Z,14.50
2023-05-12T15:42:00.499Z,14.50
2023-05-12T15:44:34.130Z,14.50
2023-05-12T15:47:04.274Z,14.30
2023-05-12T15:49:32.350Z,14.10
2023-05-12T15:52:20.884Z,13.30
2023-05-12T15:54:54.874Z,13.70
2023-05-12T15:57:29.428Z,13.90
2023-05-12T16:00:02.221Z,13.90
2023-05-12T16:02:31.031Z,12.90
2023-05-12T16:04:59.188Z,13.00
2023-05-12T16:07:33.634Z,12.90
2023-05-12T16:10:04.103Z,12.80
2023-05-12T16:12:33.527Z,12.90
2023-05-12T16:15:05.559Z,12.70
2023-05-12T16:17:36.082Z,12.70
2023-05-12T16:20:04.699Z,13.10
2023-05-12T16:22:35.807Z,13.20
2023-05-12T16:25:09.897Z,13.20
2023-05-12T16:27:52.368Z,13.30
2023-05-12T16:30:20.963Z,13.40
2023-05-12T16:32:51.811Z,13.10
2023-05-12T16:35:21.046Z,13.50
2023-05-12T16:37:50.882Z,13.40
2023-05-12T16:40:21.995Z,13.50
2023-05-12T16:42:50.059Z,13.60
2023-05-12T16:45:19.867Z,13.60
2023-05-12T16:47:48.544Z,13.60
2023-05-12T16:50:18.444Z,13.60
2023-05-12T16:52:53.494Z,13.70
2023-05-12T16:55:24.640Z,13.60
2023-05-12T16:57:52.739Z,13.80
2023-05-12T17:00:27.216Z,13.80
2023-05-12T17:03:12.408Z,13.80
2023-05-12T17:08:41.573Z,14.10
2023-05-12T17:11:23.571Z,14.10
2023-05-12T17:13:56.837Z,14.20
2023-05-12T17:16:24.973Z,14.20
2023-05-12T17:21:28.103Z,14.30
2023-05-12T17:24:09.435Z,14.30
2023-05-12T17:26:39.640Z,14.30
2023-05-12T17:29:09.651Z,14.30
2023-05-12T17:31:39.662Z,14.20
2023-05-12T17:34:15.913Z,14.10
2023-05-12T17:36:44.105Z,14.10
2023-05-12T17:39:15.743Z,14.10
2023-05-12T17:41:45.346Z,14.20
2023-05-12T17:44:14.367Z,14.20
2023-05-12T17:46:42.547Z,14.10
2023-05-12T17:49:10.682Z,14.10
2023-05-12T17:51:40.283Z,14.10
2023-05-12T17:54:33.507Z,14.10
2023-05-12T17:57:34.642Z,14.00
2023-05-12T18:00:09.630Z,13.80
2023-05-12T18:02:38.332Z,13.80
2023-05-12T18:05:10.194Z,13.70
2023-05-12T18:07:42.401Z,13.70
2023-05-12T18:10:12.691Z,13.60
2023-05-12T18:12:42.231Z,13.60
2023-05-12T18:15:11.152Z,13.60
2023-05-12T18:17:39.640Z,13.60
2023-05-12T18:20:09.765Z,13.50
2023-05-12T18:22:42.835Z,13.60
2023-05-12T18:25:13.060Z,13.40
2023-05-12T18:27:42.887Z,13.50
2023-05-12T18:30:18.471Z,13.40
2023-05-12T18:32:52.871Z,13.30
2023-05-12T18:35:31.410Z,13.30
2023-05-12T18:38:03.291Z,13.20
2023-05-12T18:40:33.274Z,13.20
2023-05-12T18:43:05.149Z,13.20
2023-05-12T18:45:33.593Z,13.20
2023-05-12T18:48:01.756Z,13.10
2023-05-12T18:50:36.624Z,13.10
2023-05-12T18:53:10.845Z,13.10
2023-05-12T18:55:38.995Z,13.00
2023-05-12T18:58:11.747Z,12.90
2023-05-12T19:00:39.842Z,12.90
2023-05-12T19:03:30.788Z,12.70
2023-05-12T19:05:58.968Z,12.70
2023-05-12T19:08:27.169Z,12.70
2023-05-12T19:10:56.770Z,12.70
2023-05-12T19:13:26.395Z,12.70
2023-05-12T19:15:54.553Z,12.80
2023-05-12T19:18:23.317Z,12.90
2023-05-12T19:21:01.561Z,12.80
2023-05-12T19:23:33.579Z,12.70
2023-05-12T19:26:01.970Z,12.60
2023-05-12T19:28:31.509Z,12.60
2023-05-12T19:30:59.876Z,12.60
2023-05-12T19:34:18.188Z,12.50
2023-05-12T19:37:07.488Z,12.50
2023-05-12T19:39:35.799Z,12.50
2023-05-12T19:42:21.814Z,12.50
2023-05-12T19:44:51.955Z,12.30
2023-05-12T19:47:25.296Z,12.30
2023-05-12T19:49:55.359Z,12.30
2023-05-12T19:52:29.638Z,12.30
2023-05-12T19:55:03.134Z,12.20
2023-05-12T19:57:31.562Z,12.20
2023-05-12T20:00:04.480Z,12.10
2023-05-12T20:02:33.794Z,12.00
2023-05-12T20:05:05.762Z,11.90
2023-05-12T20:07:34.697Z,11.80
2023-05-12T20:10:26.717Z,11.70
2023-05-12T20:13:03.752Z,11.60
2023-05-12T20:15:35.509Z,11.60
2023-05-12T20:18:04.106Z,11.60
2023-05-12T20:20:33.226Z,11.70
2023-05-12T20:23:08.470Z,11.60
2023-05-12T20:25:45.952Z,11.60
2023-05-12T20:31:22.695Z,11.50
2023-05-12T20:33:50.968Z,11.50
2023-05-12T20:36:19.535Z,11.40
2023-05-12T20:38:53.662Z,11.40
2023-05-12T20:41:22.131Z,11.40
2023-05-12T20:43:54.964Z,11.30
2023-05-12T20:46:30.835Z,11.30
2023-05-12T20:49:00.314Z,11.30
2023-05-12T20:51:28.801Z,11.20
2023-05-12T20:53:57.419Z,11.30
2023-05-12T20:56:26.810Z,11.20
2023-05-12T20:58:55.229Z,11.20
2023-05-12T21:01:35.645Z,11.30
2023-05-12T21:04:03.878Z,11.30
2023-05-12T21:06:32.843Z,11.20
2023-05-12T21:09:07.848Z,11.20
2023-05-12T21:11:36.070Z,11.10
2023-05-12T21:14:19.232Z,11.00
2023-05-12T21:16:57.449Z,11.00
2023-05-12T21:19:26.749Z,11.00
2023-05-12T21:21:54.790Z,11.00
2023-05-12T21:24:30.954Z,11.10
2023-05-12T21:26:59.031Z,11.10
2023-05-12T21:29:27.314Z,11.10
2023-05-12T21:31:57.019Z,11.10
2023-05-12T21:34:25.562Z,11.10
2023-05-12T21:36:54.697Z,11.10
2023-05-12T21:39:26.750Z,10.90
2023-05-12T21:41:55.321Z,10.80
2023-05-12T21:44:24.087Z,10.70
2023-05-12T21:46:55.353Z,10.70
2023-05-12T21:49:27.760Z,10.80
2023-05-12T21:51:56.612Z,10.80
2023-05-12T21:54:25.427Z,10.90
2023-05-12T21:56:53.693Z,11.00
2023-05-12T21:59:56.633Z,11.00
2023-05-12T22:02:24.727Z,11.00
2023-05-12T22:04:54.284Z,10.90
2023-05-12T22:07:22.525Z,10.70
2023-05-12T22:09:50.613Z,10.80
2023-05-12T22:12:23.864Z,10.90
2023-05-12T22:14:53.162Z,10.90
2023-05-12T22:17:21.224Z,10.90
2023-05-12T22:19:49.507Z,10.90
2023-05-12T22:22:19.021Z,10.90
2023-05-12T22:24:47.151Z,10.80
2023-05-12T22:27:15.653Z,10.70
2023-05-12T22:29:43.752Z,10.70
2023-05-12T22:32:19.360Z,10.60
2023-05-12T22:34:51.861Z,10.60
2023-05-12T22:37:26.090Z,10.60
2023-05-12T22:39:55.823Z,10.40
2023-05-12T22:42:23.809Z,10.50
2023-05-12T22:44:52.016Z,10.60
2023-05-12T22:47:20.247Z,10.60
2023-05-12T22:49:48.318Z,10.50
2023-05-12T22:52:16.888Z,10.60
2023-05-12T22:54:45.147Z,10.60
2023-05-12T22:57:14.680Z,10.50
2023-05-12T22:59:42.813Z,10.50
2023-05-12T23:02:10.882Z,10.60
2023-05-12T23:04:38.980Z,10.60
2023-05-12T23:07:09.137Z,10.50
2023-05-12T23:09:45.560Z,10.60
2023-05-12T23:12:15.816Z,10.60
2023-05-12T23:14:43.824Z,10.70
2023-05-12T23:17:15.634Z,10.70
2023-05-12T23:19:43.961Z,10.60
2023-05-12T23:22:13.555Z,10.60
2023-05-12T23:24:44.216Z,10.60
2023-05-12T23:27:12.744Z,10.60
2023-05-12T23:29:51.182Z,10.60
2023-05-12T23:32:26.198Z,10.70
2023-05-12T23:34:54.411Z,10.60
2023-05-12T23:37:24.479Z,10.60
2023-05-12T23:39:53.266Z,10.60
2023-05-12T23:42:21.409Z,10.70
2023-05-12T23:44:50.862Z,10.70
2023-05-12T23:47:19.578Z,10.70
2023-05-12T23:49:47.778Z,10.60
2023-05-12T23:52:15.797Z,10.60
2023-05-12T23:54:43.780Z,10.50
2023-05-12T23:57:11.994Z,10.40
2023-05-12T23:59:40.090Z,10.40
